Time;durP1;ratioP1;P1;durP2;ratioP2;P2;SDS_P1;SDS_P2;PMS_P1;PMS_P2;Temp;Humidity;BMP_temperature;BMP_pressure;BME280_temperature;BME280_humidity;BME280_pressure;Samples;Min_cycle;Max_cycle;Signal;HPM_P1;HPM_P2
2022/07/11 00:02:03;;;;;;;7.60;1.90;;;17.60;1.00;;;;;;5050862;28;20416;-58
2022/07/11 00:04:30;;;;;;;7.70;1.67;;;17.50;1.00;;;;;;5048259;28;20215;-59
2022/07/11 00:06:56;;;;;;;3.80;1.53;;;17.50;1.00;;;;;;5048572;28;21312;-59
2022/07/11 00:09:22;;;;;;;5.77;1.87;;;17.30;1.00;;;;;;5049971;28;20498;-59
2022/07/11 00:11:48;;;;;;;3.77;1.97;;;17.40;1.00;;;;;;5049756;28;20492;-59
2022/07/11 00:14:14;;;;;;;5.00;1.50;;;17.40;1.00;;;;;;5050896;28;20204;-59
2022/07/11 00:16:40;;;;;;;2.80;1.43;;;17.30;1.00;;;;;;5049543;28;20497;-59
2022/07/11 00:19:06;;;;;;;2.57;1.63;;;17.20;1.00;;;;;;5050206;28;20482;-59
2022/07/11 00:21:33;;;;;;;4.17;1.73;;;17.10;1.00;;;;;;5048054;28;20661;-58
2022/07/11 00:23:59;;;;;;;3.97;1.90;;;17.00;1.00;;;;;;5050357;28;20249;-59
2022/07/11 00:26:25;;;;;;;2.50;1.33;;;16.90;1.00;;;;;;5049417;28;20463;-58
2022/07/11 00:28:50;;;;;;;2.30;1.80;;;16.90;1.00;;;;;;5049712;28;20656;-58
2022/07/11 00:31:16;;;;;;;7.00;2.17;;;16.90;1.00;;;;;;5052894;28;20222;-59
2022/07/11 00:33:42;;;;;;;4.43;1.53;;;16.90;1.00;;;;;;5046323;28;20572;-59
2022/07/11 00:36:14;;;;;;;4.40;1.67;;;16.90;1.00;;;;;;5050143;28;20964;-60
2022/07/11 00:38:39;;;;;;;3.60;1.40;;;16.80;1.00;;;;;;5049379;28;20505;-59
2022/07/11 00:41:14;;;;;;;4.17;1.57;;;16.70;1.00;;;;;;5046829;28;20493;-59
2022/07/11 00:43:41;;;;;;;7.10;1.73;;;16.70;1.00;;;;;;5049583;28;20708;-58
2022/07/11 00:46:12;;;;;;;2.13;1.47;;;16.70;1.00;;;;;;5057176;28;20424;-58
2022/07/11 00:48:38;;;;;;;5.10;1.60;;;16.60;1.00;;;;;;5049877;28;20458;-58
2022/07/11 00:51:13;;;;;;;3.13;1.43;;;16.60;1.00;;;;;;5049657;28;20446;-59
2022/07/11 00:53:40;;;;;;;2.90;1.73;;;16.60;1.00;;;;;;5049007;28;20194;-59
2022/07/11 00:56:11;;;;;;;3.63;1.60;;;16.60;1.00;;;;;;5048524;28;20479;-58
2022/07/11 00:58:37;;;;;;;2.70;1.80;;;16.60;1.00;;;;;;5049860;28;20416;-59
2022/07/11 01:01:04;;;;;;;1.77;1.50;;;16.60;1.00;;;;;;5049700;28;20477;-57
2022/07/11 01:03:29;;;;;;;2.33;1.60;;;16.60;1.00;;;;;;5049292;28;20227;-59
2022/07/11 01:05:55;;;;;;;3.93;1.70;;;16.60;1.00;;;;;;5049701;28;20485;-58
2022/07/11 01:08:20;;;;;;;2.57;1.13;;;16.60;1.00;;;;;;5050232;28;20530;-58
2022/07/11 01:10:47;;;;;;;4.53;1.53;;;16.50;1.00;;;;;;5049814;28;20215;-59
2022/07/11 01:13:12;;;;;;;1.43;1.20;;;16.50;1.00;;;;;;5045929;28;20195;-59
2022/07/11 01:15:38;;;;;;;6.83;1.87;;;16.50;1.00;;;;;;5048655;28;20907;-59
2022/07/11 01:18:04;;;;;;;2.80;1.27;;;16.40;1.00;;;;;;5048734;28;20234;-59
2022/07/11 01:20:30;;;;;;;2.03;1.30;;;16.40;1.00;;;;;;5048009;28;20191;-59
2022/07/11 01:23:06;;;;;;;4.20;1.67;;;16.50;1.00;;;;;;5047493;28;20630;-59
2022/07/11 01:25:32;;;;;;;2.40;1.53;;;16.50;1.00;;;;;;5046165;28;20462;-58
2022/07/11 01:28:01;;;;;;;2.83;1.20;;;16.50;1.00;;;;;;5048843;28;20453;-59
2022/07/11 01:30:28;;;;;;;3.93;1.77;;;16.40;1.00;;;;;;5048753;28;20223;-58
2022/07/11 01:32:55;;;;;;;3.40;1.70;;;16.40;1.00;;;;;;5047527;28;20538;-59
2022/07/11 01:35:21;;;;;;;3.53;1.47;;;16.30;1.00;;;;;;5047864;28;20438;-59
2022/07/11 01:37:47;;;;;;;1.73;1.30;;;16.30;1.00;;;;;;5048275;28;20413;-59
2022/07/11 01:40:13;;;;;;;2.23;1.47;;;16.20;1.00;;;;;;5049652;28;20524;-59
2022/07/11 01:42:40;;;;;;;2.90;1.47;;;16.10;1.00;;;;;;5048330;28;20534;-59
2022/07/11 01:45:05;;;;;;;2.50;1.53;;;16.10;1.00;;;;;;5048844;28;21087;-59
2022/07/11 01:47:31;;;;;;;2.73;1.50;;;16.10;1.00;;;;;;5048588;28;20458;-57
2022/07/11 01:49:57;;;;;;;4.80;1.63;;;16.10;1.00;;;;;;5049032;28;20465;-59
2022/07/11 01:52:22;;;;;;;2.30;1.60;;;16.00;1.00;;;;;;5050746;28;20192;-59
2022/07/11 01:54:48;;;;;;;4.00;1.80;;;16.00;1.00;;;;;;5051473;28;20177;-59
2022/07/11 01:57:14;;;;;;;5.73;1.60;;;16.00;1.00;;;;;;5057410;28;20245;-59
2022/07/11 01:59:40;;;;;;;2.43;1.60;;;16.00;1.00;;;;;;5059319;28;21070;-59
2022/07/11 02:02:06;;;;;;;3.40;1.60;;;16.10;1.00;;;;;;5052970;28;20533;-59
2022/07/11 02:04:32;;;;;;;4.13;1.77;;;16.00;1.00;;;;;;5051470;28;20456;-59
2022/07/11 02:06:57;;;;;;;2.43;1.73;;;16.00;1.00;;;;;;5052153;28;20222;-59
2022/07/11 02:09:23;;;;;;;2.33;1.40;;;16.10;1.00;;;;;;5052383;28;20239;-59
2022/07/11 02:11:49;;;;;;;2.40;1.77;;;16.00;1.00;;;;;;5052514;28;20467;-59
2022/07/11 02:14:14;;;;;;;1.77;1.33;;;16.10;1.00;;;;;;5053057;28;20259;-58
2022/07/11 02:16:40;;;;;;;3.93;1.63;;;16.00;1.00;;;;;;5053199;28;20188;-59
2022/07/11 02:19:06;;;;;;;3.07;1.60;;;15.90;1.00;;;;;;5052256;28;20196;-58
2022/07/11 02:21:33;;;;;;;5.10;2.07;;;15.90;1.00;;;;;;5052497;28;20258;-59
2022/07/11 02:23:58;;;;;;;2.73;1.50;;;15.90;1.00;;;;;;5056226;28;20623;-59
2022/07/11 02:26:25;;;;;;;2.10;1.60;;;15.80;1.00;;;;;;5051973;28;20495;-59
2022/07/11 02:28:50;;;;;;;2.03;1.53;;;15.70;1.00;;;;;;5051458;28;20531;-59
2022/07/11 02:31:16;;;;;;;2.60;1.70;;;15.90;1.00;;;;;;5052355;28;20409;-59
2022/07/11 02:33:42;;;;;;;3.30;1.40;;;15.80;1.00;;;;;;5052727;28;20203;-59
2022/07/11 02:36:11;;;;;;;4.30;1.73;;;15.80;1.00;;;;;;5052634;28;20188;-59
2022/07/11 02:38:37;;;;;;;3.97;1.57;;;15.90;1.00;;;;;;5052701;28;20183;-59
2022/07/11 02:41:03;;;;;;;2.50;1.27;;;15.90;1.00;;;;;;5052502;28;20951;-59
2022/07/11 02:43:29;;;;;;;3.97;1.60;;;15.90;1.00;;;;;;5052107;28;20536;-59
2022/07/11 02:45:55;;;;;;;4.20;1.83;;;15.90;1.00;;;;;;5049257;28;20196;-58
2022/07/11 02:48:21;;;;;;;3.47;1.33;;;15.90;1.00;;;;;;5052144;28;20215;-59
2022/07/11 02:50:47;;;;;;;2.73;1.53;;;15.80;1.00;;;;;;5051301;28;20469;-59
2022/07/11 02:53:13;;;;;;;4.97;2.23;;;15.80;1.00;;;;;;5050657;28;20275;-59
2022/07/11 02:55:39;;;;;;;4.67;1.60;;;15.80;1.00;;;;;;5051703;28;20446;-59
2022/07/11 02:58:05;;;;;;;4.10;1.47;;;15.80;1.00;;;;;;5050898;28;20446;-58
2022/07/11 03:00:31;;;;;;;3.37;1.50;;;15.90;1.00;;;;;;5051865;28;20188;-59
2022/07/11 03:02:56;;;;;;;2.20;1.30;;;15.90;1.00;;;;;;5051629;28;20190;-58
2022/07/11 03:05:22;;;;;;;2.73;1.63;;;15.90;1.00;;;;;;5050966;28;20442;-59
2022/07/11 03:07:48;;;;;;;3.67;1.40;;;16.00;1.00;;;;;;5051444;28;20183;-59
2022/07/11 03:10:14;;;;;;;2.63;1.87;;;15.90;1.00;;;;;;5051779;28;20848;-59
2022/07/11 03:12:40;;;;;;;4.30;1.60;;;15.60;1.00;;;;;;5051713;28;20438;-59
2022/07/11 03:15:07;;;;;;;2.77;2.03;;;15.90;1.00;;;;;;5052196;28;20188;-59
2022/07/11 03:17:33;;;;;;;1.50;1.40;;;15.90;1.00;;;;;;5052175;28;20951;-60
2022/07/11 03:19:58;;;;;;;3.90;1.63;;;15.90;1.00;;;;;;5047834;28;20439;-59
2022/07/11 03:22:24;;;;;;;3.93;1.10;;;15.80;1.00;;;;;;5052004;28;20447;-58
2022/07/11 03:24:52;;;;;;;3.73;1.50;;;15.80;1.00;;;;;;5051327;28;20224;-59
2022/07/11 03:27:18;;;;;;;1.57;1.47;;;15.80;1.00;;;;;;5051568;28;20278;-59
2022/07/11 03:29:44;;;;;;;1.97;1.77;;;15.80;1.00;;;;;;5058896;28;20880;-58
2022/07/11 03:32:09;;;;;;;4.80;1.70;;;15.80;1.00;;;;;;5053999;28;20270;-58
2022/07/11 03:34:35;;;;;;;5.27;1.77;;;15.90;1.00;;;;;;5051684;28;20188;-58
2022/07/11 03:37:01;;;;;;;8.83;2.00;;;15.80;1.00;;;;;;5060878;28;20214;-59
2022/07/11 03:39:27;;;;;;;4.03;2.10;;;15.90;1.00;;;;;;5061153;28;20454;-60
2022/07/11 03:41:54;;;;;;;5.03;1.83;;;16.00;1.00;;;;;;5050111;28;20199;-59
2022/07/11 03:44:19;;;;;;;5.30;1.50;;;16.20;1.00;;;;;;5050966;28;20441;-57
2022/07/11 03:46:45;;;;;;;6.60;1.47;;;16.30;1.00;;;;;;5051365;28;20450;-58
2022/07/11 03:49:11;;;;;;;4.87;2.10;;;16.40;1.00;;;;;;5050419;28;20210;-57
2022/07/11 03:51:36;;;;;;;4.83;1.90;;;16.40;1.00;;;;;;5048054;28;20188;-58
2022/07/11 03:54:02;;;;;;;3.50;1.60;;;16.50;1.00;;;;;;5049501;28;20196;-60
2022/07/11 03:56:28;;;;;;;2.90;1.57;;;16.40;1.00;;;;;;5046381;28;20601;-59
2022/07/11 03:58:53;;;;;;;4.27;1.70;;;16.30;1.00;;;;;;5049351;28;20184;-59
2022/07/11 04:01:22;;;;;;;4.70;1.80;;;16.20;1.00;;;;;;5050720;28;20322;-59
2022/07/11 04:03:47;;;;;;;8.57;2.23;;;16.00;1.00;;;;;;5055693;28;20180;-59
2022/07/11 04:06:19;;;;;;;4.70;1.60;;;15.80;1.00;;;;;;5070175;28;20513;-58
2022/07/11 04:08:45;;;;;;;7.80;2.10;;;15.60;1.00;;;;;;5051000;28;20525;-59
2022/07/11 04:11:15;;;;;;;7.33;2.00;;;15.30;1.00;;;;;;5049648;28;20541;-60
2022/07/11 04:13:41;;;;;;;4.13;1.70;;;15.40;1.00;;;;;;5048645;28;20318;-59
2022/07/11 04:16:16;;;;;;;3.90;1.53;;;15.40;1.00;;;;;;5049691;28;20537;-59
2022/07/11 04:18:41;;;;;;;4.07;1.90;;;15.30;1.00;;;;;;5050502;28;20483;-59
2022/07/11 04:21:16;;;;;;;3.17;2.13;;;15.40;1.00;;;;;;5050851;28;20443;-60
2022/07/11 04:23:42;;;;;;;5.83;2.23;;;15.40;1.00;;;;;;5049877;28;20192;-59
2022/07/11 04:26:16;;;;;;;5.37;2.10;;;15.50;1.00;;;;;;5049638;28;20493;-59
2022/07/11 04:28:42;;;;;;;5.77;1.77;;;15.50;1.00;;;;;;5048125;28;20195;-59
2022/07/11 04:31:17;;;;;;;4.80;1.70;;;15.50;1.00;;;;;;5046326;28;20450;-58
2022/07/11 04:33:42;;;;;;;4.50;1.80;;;15.40;1.00;;;;;;5049794;28;20172;-58
2022/07/11 04:36:14;;;;;;;2.23;1.80;;;15.40;1.00;;;;;;5049553;28;20413;-58
2022/07/11 04:38:43;;;;;;;4.47;1.80;;;15.50;1.00;;;;;;5050070;28;20187;-58
2022/07/11 04:41:18;;;;;;;3.73;1.53;;;15.60;1.00;;;;;;5050477;28;20409;-58
2022/07/11 04:43:44;;;;;;;5.10;1.80;;;15.50;1.00;;;;;;5050395;28;20480;-60
2022/07/11 04:46:15;;;;;;;5.77;1.70;;;15.50;1.00;;;;;;5051431;28;20452;-54
2022/07/11 04:48:41;;;;;;;2.47;1.30;;;15.60;1.00;;;;;;5065133;28;20180;-59
2022/07/11 04:51:13;;;;;;;3.00;1.70;;;15.70;1.00;;;;;;5053820;28;20442;-60
2022/07/11 04:53:39;;;;;;;2.70;1.60;;;15.60;1.00;;;;;;5057078;28;20195;-60
2022/07/11 04:56:05;;;;;;;4.53;1.90;;;15.70;1.00;;;;;;5050032;28;20646;-58
2022/07/11 04:58:33;;;;;;;3.20;1.57;;;15.80;1.00;;;;;;5049974;28;20710;-59
2022/07/11 05:01:00;;;;;;;2.97;1.73;;;15.90;1.00;;;;;;5049709;28;20421;-59
2022/07/11 05:03:26;;;;;;;5.40;1.60;;;15.90;1.00;;;;;;5049409;28;20436;-60
2022/07/11 05:05:51;;;;;;;2.77;1.50;;;15.90;1.00;;;;;;5049201;28;20926;-59
2022/07/11 05:08:17;;;;;;;6.27;2.00;;;15.90;1.00;;;;;;5048542;28;20198;-59
2022/07/11 05:10:43;;;;;;;3.40;2.10;;;15.80;1.00;;;;;;5049763;28;20207;-58
2022/07/11 05:13:08;;;;;;;2.50;1.97;;;15.90;1.00;;;;;;5049733;28;20217;-59
2022/07/11 05:15:34;;;;;;;5.00;1.60;;;16.00;1.00;;;;;;5048510;28;20660;-59
2022/07/11 05:17:59;;;;;;;1.73;1.50;;;16.10;1.00;;;;;;5048912;28;20196;-59
2022/07/11 05:20:25;;;;;;;1.67;1.33;;;15.40;1.00;;;;;;5045395;28;20580;-59
2022/07/11 05:22:51;;;;;;;3.70;1.90;;;16.00;1.00;;;;;;5049861;28;20207;-58
2022/07/11 05:25:16;;;;;;;5.13;1.77;;;15.40;1.00;;;;;;5047224;28;20652;-58
2022/07/11 05:27:42;;;;;;;2.87;1.97;;;16.10;1.00;;;;;;5049456;28;20191;-59
2022/07/11 05:30:08;;;;;;;1.73;1.30;;;16.10;1.00;;;;;;5041912;28;20242;-59
2022/07/11 05:32:34;;;;;;;2.63;1.87;;;16.10;1.00;;;;;;5048724;28;20188;-58
2022/07/11 05:35:02;;;;;;;4.33;1.70;;;16.30;1.00;;;;;;5045206;28;20458;-59
2022/07/11 05:37:28;;;;;;;4.27;1.80;;;16.40;1.00;;;;;;5047139;28;20421;-59
2022/07/11 05:39:53;;;;;;;14.13;1.77;;;16.40;1.00;;;;;;5048889;28;20421;-59
2022/07/11 05:42:19;;;;;;;6.37;1.87;;;16.40;1.00;;;;;;5044301;28;20977;-59
2022/07/11 05:44:45;;;;;;;8.67;2.00;;;16.50;1.00;;;;;;5046909;28;20208;-60
2022/07/11 05:47:10;;;;;;;4.17;1.80;;;16.60;1.00;;;;;;5046971;28;20191;-59
2022/07/11 05:49:36;;;;;;;2.67;1.47;;;16.60;1.00;;;;;;5047794;28;20203;-59
2022/07/11 05:52:02;;;;;;;2.50;1.87;;;16.60;1.00;;;;;;5048768;28;20180;-59
2022/07/11 05:54:28;;;;;;;5.30;1.70;;;16.50;1.00;;;;;;5047868;28;20641;-59
2022/07/11 05:56:54;;;;;;;8.80;1.93;;;16.60;1.00;;;;;;5049579;28;20275;-59
2022/07/11 05:59:20;;;;;;;4.97;2.83;;;16.50;1.00;;;;;;5048364;28;20892;-59
2022/07/11 06:01:47;;;;;;;7.07;2.20;;;16.60;1.00;;;;;;5052038;28;20434;-59
2022/07/11 06:04:14;;;;;;;2.60;1.50;;;16.80;1.00;;;;;;5069364;28;20424;-59
2022/07/11 06:06:40;;;;;;;5.30;2.00;;;17.00;1.00;;;;;;5048403;28;20446;-58
2022/07/11 06:09:06;;;;;;;3.03;1.23;;;17.20;1.00;;;;;;5047980;28;20470;-59
2022/07/11 06:11:32;;;;;;;3.70;1.80;;;17.20;1.00;;;;;;5047748;28;20530;-59
2022/07/11 06:13:58;;;;;;;4.33;1.87;;;17.20;1.00;;;;;;5049083;28;20441;-59
2022/07/11 06:16:24;;;;;;;4.10;1.80;;;17.40;1.00;;;;;;5048361;28;20465;-59
2022/07/11 06:18:50;;;;;;;16.60;2.60;;;17.30;1.00;;;;;;5047368;28;20668;-58
2022/07/11 06:21:17;;;;;;;4.13;2.00;;;17.40;1.00;;;;;;5049228;28;20242;-58
2022/07/11 06:23:42;;;;;;;5.33;2.43;;;17.40;1.00;;;;;;5048245;28;20893;-59
2022/07/11 06:26:15;;;;;;;5.63;1.83;;;17.50;1.00;;;;;;5048204;28;20445;-59
2022/07/11 06:28:41;;;;;;;4.20;1.83;;;17.60;1.00;;;;;;5047238;28;20442;-58
2022/07/11 06:31:10;;;;;;;5.70;2.13;;;17.60;1.00;;;;;;5047641;28;20938;-58
2022/07/11 06:33:36;;;;;;;6.17;1.73;;;17.70;1.00;;;;;;5048071;28;20421;-59
2022/07/11 06:36:02;;;;;;;5.40;2.00;;;17.60;1.00;;;;;;5049187;28;20442;-59
2022/07/11 06:38:31;;;;;;;8.20;2.00;;;17.60;1.00;;;;;;5052795;28;20450;-58
2022/07/11 06:40:56;;;;;;;3.70;1.97;;;17.60;1.00;;;;;;5051980;28;20926;-58
2022/07/11 06:43:23;;;;;;;3.00;1.80;;;17.70;1.00;;;;;;5051530;28;20479;-59
2022/07/11 06:45:48;;;;;;;6.23;2.00;;;17.70;1.00;;;;;;5051038;28;20657;-59
2022/07/11 06:48:14;;;;;;;4.30;1.90;;;17.80;1.00;;;;;;5051311;28;20504;-60
2022/07/11 06:50:40;;;;;;;4.33;2.00;;;17.80;1.00;;;;;;5049257;28;20207;-57
2022/07/11 06:53:06;;;;;;;3.80;1.40;;;17.70;1.00;;;;;;5050986;28;20191;-60
2022/07/11 06:55:33;;;;;;;4.80;2.20;;;18.10;1.00;;;;;;5051256;28;20791;-58
2022/07/11 06:57:59;;;;;;;5.37;1.77;;;18.60;1.00;;;;;;5051388;28;20238;-58
2022/07/11 07:00:25;;;;;;;5.53;1.87;;;18.80;1.00;;;;;;5051577;28;20451;-59
2022/07/11 07:02:50;;;;;;;3.50;1.97;;;18.90;1.00;;;;;;5051629;28;20561;-58
2022/07/11 07:05:16;;;;;;;6.60;1.80;;;18.60;1.00;;;;;;5050838;28;20192;-58
2022/07/11 07:07:41;;;;;;;5.93;1.67;;;18.20;1.00;;;;;;5051217;28;20689;-58
2022/07/11 07:10:07;;;;;;;3.97;1.63;;;18.30;1.00;;;;;;5051173;28;20314;-59
2022/07/11 07:12:38;;;;;;;3.30;1.60;;;18.40;1.00;;;;;;5051542;28;20266;-58
2022/07/11 07:15:04;;;;;;;6.90;1.93;;;18.50;1.00;;;;;;5052215;28;20450;-58
2022/07/11 07:17:31;;;;;;;5.17;1.80;;;18.60;1.00;;;;;;5051115;28;20428;-58
2022/07/11 07:19:56;;;;;;;3.10;1.80;;;19.10;1.00;;;;;;5051727;28;20453;-59
2022/07/11 07:22:22;;;;;;;3.30;1.80;;;19.20;1.00;;;;;;5050150;28;20397;-60
2022/07/11 07:24:48;;;;;;;5.93;1.50;;;19.50;1.00;;;;;;5051473;28;20218;-59
2022/07/11 07:27:14;;;;;;;5.77;1.80;;;19.30;1.00;;;;;;5051919;28;20263;-58
2022/07/11 07:29:40;;;;;;;2.80;1.30;;;19.20;1.00;;;;;;5051317;28;20799;-58
2022/07/11 07:32:06;;;;;;;6.10;1.87;;;19.40;1.00;;;;;;5051686;28;20176;-59
2022/07/11 07:34:32;;;;;;;2.90;1.53;;;19.80;1.00;;;;;;5051563;28;20471;-58
2022/07/11 07:36:59;;;;;;;3.73;1.73;;;19.80;1.00;;;;;;5050746;28;20496;-58
2022/07/11 07:39:24;;;;;;;3.50;1.20;;;19.50;1.00;;;;;;5051549;28;20420;-58
2022/07/11 07:41:50;;;;;;;2.27;1.37;;;19.00;1.00;;;;;;5051502;28;20409;-58
2022/07/11 07:44:15;;;;;;;5.83;1.60;;;18.90;1.00;;;;;;5051563;28;20188;-59
2022/07/11 07:46:41;;;;;;;2.30;1.20;;;19.10;1.00;;;;;;5051531;28;20184;-59
2022/07/11 07:49:07;;;;;;;5.43;1.43;;;19.30;1.00;;;;;;5051454;28;20204;-58
2022/07/11 07:51:33;;;;;;;4.30;1.20;;;19.60;1.00;;;;;;5051500;28;20185;-59
2022/07/11 07:53:58;;;;;;;3.97;1.33;;;19.90;1.00;;;;;;5051118;28;20191;-59
2022/07/11 07:56:24;;;;;;;4.47;1.40;;;20.00;1.00;;;;;;5051137;28;20443;-59
2022/07/11 07:58:51;;;;;;;2.70;1.30;;;20.20;1.00;;;;;;5051100;28;20184;-59
2022/07/11 08:01:35;;;;;;;3.30;1.20;;;20.10;1.00;;;;;;5051599;28;20176;-58
2022/07/11 08:04:05;;;;;;;2.17;0.90;;;20.10;1.00;;;;;;5050982;28;20523;-59
2022/07/11 08:06:31;;;;;;;4.00;1.03;;;20.00;1.00;;;;;;5051258;28;20471;-59
2022/07/11 08:08:57;;;;;;;1.67;1.30;;;20.00;1.00;;;;;;5050807;28;20792;-59
2022/07/11 08:11:23;;;;;;;3.43;1.30;;;19.80;1.00;;;;;;5051522;28;20472;-59
2022/07/11 08:13:49;;;;;;;5.00;2.10;;;19.70;1.00;;;;;;5050382;28;20955;-59
2022/07/11 08:16:24;;;;;;;2.93;2.00;;;19.90;1.00;;;;;;5050907;28;20442;-59
2022/07/11 08:18:50;;;;;;;9.10;1.77;;;19.80;1.00;;;;;;5050810;28;20190;-58
2022/07/11 08:21:16;;;;;;;8.53;1.97;;;19.80;1.00;;;;;;5051218;28;20434;-60
2022/07/11 08:23:41;;;;;;;2.40;1.80;;;20.40;1.00;;;;;;5051352;28;20504;-58
2022/07/11 08:26:23;;;;;;;3.20;1.53;;;21.00;1.00;;;;;;5050519;28;20507;-60
2022/07/11 08:28:48;;;;;;;4.80;1.50;;;21.40;1.00;;;;;;5050401;28;20219;-59
2022/07/11 08:31:24;;;;;;;3.83;1.73;;;21.40;1.00;;;;;;5050995;28;20435;-59
2022/07/11 08:33:50;;;;;;;4.83;1.80;;;21.30;1.00;;;;;;5048892;28;20652;-58
2022/07/11 08:36:22;;;;;;;6.40;2.00;;;20.80;1.00;;;;;;5050357;28;20413;-59
2022/07/11 08:38:48;;;;;;;1.90;1.50;;;20.30;1.00;;;;;;5050730;28;20482;-59
2022/07/11 08:41:22;;;;;;;9.80;2.03;;;20.30;1.00;;;;;;5050273;28;20422;-59
2022/07/11 08:43:49;;;;;;;5.77;1.23;;;20.60;1.00;;;;;;5050518;28;20211;-58
2022/07/11 08:46:25;;;;;;;3.57;1.50;;;20.70;1.00;;;;;;5049769;28;20441;-60
2022/07/11 08:48:52;;;;;;;5.13;1.60;;;20.50;1.00;;;;;;5050245;28;20467;-59
2022/07/11 08:51:28;;;;;;;3.77;1.60;;;20.50;1.00;;;;;;5050187;28;20466;-58
2022/07/11 08:53:53;;;;;;;3.00;1.63;;;20.70;1.00;;;;;;5055123;28;20445;-59
2022/07/11 08:56:27;;;;;;;2.40;1.23;;;20.70;1.00;;;;;;5069849;28;20453;-59
2022/07/11 08:58:53;;;;;;;2.73;1.60;;;21.00;1.00;;;;;;5070232;28;20210;-59
2022/07/11 09:01:34;;;;;;;4.80;1.50;;;21.10;1.00;;;;;;5069643;28;20434;-59
2022/07/11 09:04:00;;;;;;;2.50;1.53;;;21.40;1.00;;;;;;5070225;28;20481;-58
2022/07/11 09:06:27;;;;;;;3.50;1.50;;;21.20;1.00;;;;;;5070011;28;20426;-59
2022/07/11 09:09:00;;;;;;;3.17;1.43;;;21.00;1.00;;;;;;5070156;28;20495;-60
2022/07/11 09:11:47;;;;;;;3.13;1.53;;;20.60;1.00;;;;;;5069622;28;20717;-60
2022/07/11 09:14:24;;;;;;;1.87;1.20;;;20.60;1.00;;;;;;5061838;28;20517;-59
2022/07/11 09:16:54;;;;;;;3.27;1.33;;;20.90;1.00;;;;;;5049832;28;20450;-59
2022/07/11 09:19:24;;;;;;;4.37;1.50;;;21.10;1.00;;;;;;5049733;28;20416;-60
2022/07/11 09:27:48;;;;;;;4.10;1.97;;;21.30;1.00;;;;;;5049934;28;20445;-59
2022/07/11 09:30:32;;;;;;;2.63;1.50;;;20.70;1.00;;;;;;5049575;28;20539;-58
2022/07/11 09:33:03;;;;;;;2.50;1.10;;;20.90;1.00;;;;;;5049855;28;20405;-58
2022/07/11 09:35:37;;;;;;;4.87;1.30;;;21.00;1.00;;;;;;5049378;28;20437;-59
2022/07/11 09:38:05;;;;;;;2.27;1.20;;;21.20;1.00;;;;;;5049619;28;20405;-59
2022/07/11 09:40:31;;;;;;;6.20;1.40;;;21.40;1.00;;;;;;5049400;28;20466;-59
2022/07/11 09:42:58;;;;;;;1.50;1.10;;;21.40;1.00;;;;;;5049746;28;20430;-58
2022/07/11 09:45:26;;;;;;;3.37;0.90;;;21.10;1.00;;;;;;5049817;28;20425;-59
2022/07/11 09:47:54;;;;;;;2.00;1.13;;;21.10;1.00;;;;;;5049715;28;20413;-59
2022/07/11 09:50:21;;;;;;;3.87;1.00;;;21.20;1.00;;;;;;5049570;28;20559;-59
2022/07/11 09:52:59;;;;;;;1.63;1.00;;;21.30;1.00;;;;;;5048926;28;20443;-59
2022/07/11 09:55:26;;;;;;;1.90;1.00;;;21.70;1.00;;;;;;5047674;28;20417;-59
2022/07/11 09:57:52;;;;;;;1.87;1.07;;;21.70;1.00;;;;;;5049406;28;20422;-59
2022/07/11 10:00:18;;;;;;;1.50;1.00;;;21.40;1.00;;;;;;5049613;28;20473;-59
2022/07/11 10:02:44;;;;;;;4.00;1.00;;;21.40;1.00;;;;;;5066406;28;20796;-59
2022/07/11 10:05:10;;;;;;;2.70;1.83;;;21.40;1.00;;;;;;5069761;28;20448;-57
2022/07/11 10:07:36;;;;;;;3.73;1.23;;;21.40;1.00;;;;;;5069752;28;21026;-59
2022/07/11 10:10:05;;;;;;;3.57;1.13;;;21.10;1.00;;;;;;5069156;28;20556;-59
2022/07/11 10:12:34;;;;;;;2.03;0.80;;;21.40;1.00;;;;;;5071637;28;20464;-59
2022/07/11 10:15:10;;;;;;;1.90;0.83;;;21.80;1.00;;;;;;5073139;28;20404;-59
2022/07/11 10:17:42;;;;;;;5.10;1.20;;;21.90;1.00;;;;;;5073395;28;21003;-60
2022/07/11 10:20:12;;;;;;;2.77;1.00;;;22.30;1.00;;;;;;5072748;28;20441;-59
2022/07/11 10:22:44;;;;;;;2.00;1.10;;;22.30;1.00;;;;;;5072778;28;20444;-58
2022/07/11 10:26:08;;;;;;;2.40;0.93;;;22.20;1.00;;;;;;5051720;28;20478;-59
2022/07/11 10:28:48;;;;;;;2.43;1.00;;;22.10;1.00;;;;;;5030443;28;21009;-59
2022/07/11 10:31:27;;;;;;;1.70;1.20;;;22.30;1.00;;;;;;5043382;28;21000;-59
2022/07/11 10:34:03;;;;;;;1.97;0.93;;;22.60;1.00;;;;;;5044114;28;20461;-58
2022/07/11 10:36:41;;;;;;;4.37;1.23;;;21.80;1.00;;;;;;5052874;28;20417;-59
2022/07/11 10:39:12;;;;;;;3.90;2.67;;;21.80;1.00;;;;;;5052536;28;20530;-59
2022/07/11 10:41:38;;;;;;;2.30;1.03;;;22.10;1.00;;;;;;5052917;28;20436;-59
2022/07/11 10:44:04;;;;;;;3.10;1.17;;;22.50;1.00;;;;;;5052682;28;20424;-59
2022/07/11 10:46:30;;;;;;;3.57;0.90;;;22.90;1.00;;;;;;5052666;28;20191;-58
2022/07/11 10:49:20;;;;;;;5.43;1.37;;;22.60;1.00;;;;;;5052695;28;20538;-58
2022/07/11 10:52:05;;;;;;;2.30;1.07;;;22.30;1.00;;;;;;5052173;28;21120;-59
2022/07/11 10:54:51;;;;;;;1.43;0.70;;;22.00;1.00;;;;;;5052503;28;20760;-60
2022/07/11 10:57:37;;;;;;;1.37;0.70;;;22.20;1.00;;;;;;5052337;28;20525;-59
2022/07/11 11:00:10;;;;;;;1.70;0.90;;;22.30;1.00;;;;;;5052342;28;20467;-59
2022/07/11 11:03:05;;;;;;;1.60;0.90;;;22.70;1.00;;;;;;5052307;28;20940;-58
2022/07/11 11:05:42;;;;;;;1.17;0.90;;;23.00;1.00;;;;;;5052150;28;20430;-60
2022/07/11 11:08:33;;;;;;;3.90;1.90;;;23.20;1.00;;;;;;5052143;28;20444;-60
2022/07/11 11:11:21;;;;;;;2.03;1.20;;;23.50;1.00;;;;;;5051931;28;20766;-59
2022/07/11 11:14:17;;;;;;;2.87;1.00;;;23.70;1.00;;;;;;5048809;28;20417;-59
2022/07/11 11:16:43;;;;;;;1.20;1.03;;;23.60;1.00;;;;;;5050736;28;20748;-59
2022/07/11 11:19:46;;;;;;;2.10;1.13;;;23.90;1.00;;;;;;5050698;28;20431;-58
2022/07/11 11:22:13;;;;;;;1.47;0.80;;;23.60;1.00;;;;;;5049924;28;20180;-59
2022/07/11 11:24:38;;;;;;;1.53;0.70;;;23.60;1.00;;;;;;5051733;28;20401;-59
2022/07/11 11:27:04;;;;;;;1.23;0.80;;;23.40;1.00;;;;;;5051714;28;21109;-59
2022/07/11 11:29:31;;;;;;;2.50;0.67;;;23.10;1.00;;;;;;5051698;28;20277;-59
2022/07/11 11:31:58;;;;;;;2.40;0.80;;;23.00;1.00;;;;;;5052211;28;20188;-59
2022/07/11 11:34:25;;;;;;;2.70;1.20;;;23.20;1.00;;;;;;5050506;28;20446;-59
2022/07/11 11:36:55;;;;;;;3.10;0.70;;;23.40;1.00;;;;;;5054588;28;20498;-60
2022/07/11 11:39:35;;;;;;;2.87;0.97;;;23.20;1.00;;;;;;5071968;28;20453;-59
2022/07/11 11:42:06;;;;;;;2.03;0.70;;;22.90;1.00;;;;;;5065602;28;21014;-60
2022/07/11 11:44:33;;;;;;;2.40;0.70;;;22.70;1.00;;;;;;5051687;28;20489;-59
2022/07/11 11:46:59;;;;;;;1.40;1.13;;;22.90;1.00;;;;;;5051177;28;20501;-59
2022/07/11 11:49:24;;;;;;;1.30;0.77;;;23.00;1.00;;;;;;5051481;28;20535;-59
2022/07/11 11:51:54;;;;;;;2.10;1.10;;;23.10;1.00;;;;;;5051329;28;20177;-59
2022/07/11 11:54:25;;;;;;;0.80;0.60;;;23.40;1.00;;;;;;5051169;28;20193;-59
2022/07/11 11:56:52;;;;;;;1.17;0.70;;;23.30;1.00;;;;;;5051521;28;20961;-60
2022/07/11 11:59:18;;;;;;;1.53;0.70;;;23.40;1.00;;;;;;5051392;28;20471;-60
2022/07/11 12:01:45;;;;;;;0.90;0.80;;;23.80;1.00;;;;;;5051516;28;20445;-59
2022/07/11 12:04:16;;;;;;;0.90;0.70;;;23.80;1.00;;;;;;5051163;28;20948;-59
2022/07/11 12:06:50;;;;;;;3.43;0.67;;;23.60;1.00;;;;;;5051255;28;20807;-60
2022/07/11 12:14:49;;;;;;;1.20;0.63;;;23.70;1.00;;;;;;5051576;28;20408;-60
2022/07/11 12:17:15;;;;;;;2.13;0.60;;;23.60;1.00;;;;;;5050509;28;20417;-60
2022/07/11 12:19:43;;;;;;;0.70;0.50;;;23.80;1.00;;;;;;5051066;28;20196;-59
2022/07/11 12:22:09;;;;;;;1.50;0.70;;;23.90;1.00;;;;;;5050532;28;21175;-60
2022/07/11 12:24:34;;;;;;;1.20;0.53;;;23.90;1.00;;;;;;5050824;28;20442;-59
2022/07/11 12:27:00;;;;;;;3.43;1.03;;;24.20;1.00;;;;;;5050968;28;20219;-59
2022/07/11 12:29:28;;;;;;;1.90;0.90;;;23.90;1.00;;;;;;5050388;28;20227;-60
2022/07/11 12:31:56;;;;;;;1.30;0.87;;;23.40;1.00;;;;;;5050742;28;20409;-60
2022/07/11 12:34:41;;;;;;;0.70;0.60;;;23.50;1.00;;;;;;5049828;28;20433;-60
2022/07/11 12:37:09;;;;;;;1.97;0.60;;;23.60;1.00;;;;;;5050710;28;20466;-59
2022/07/11 12:39:38;;;;;;;2.10;0.70;;;23.50;1.00;;;;;;5050829;28;20961;-60
2022/07/11 12:42:20;;;;;;;1.10;0.60;;;23.70;1.00;;;;;;5050649;28;20438;-59
2022/07/11 12:45:13;;;;;;;1.23;1.13;;;23.80;1.00;;;;;;5050152;28;20442;-59
2022/07/11 12:47:41;;;;;;;1.27;0.50;;;23.80;1.00;;;;;;5050518;28;20482;-58
2022/07/11 12:50:21;;;;;;;1.67;0.60;;;24.10;1.00;;;;;;5050378;28;20441;-60
2022/07/11 12:52:48;;;;;;;1.30;0.63;;;24.10;1.00;;;;;;5050101;28;20744;-59
2022/07/11 12:55:27;;;;;;;2.20;0.50;;;24.10;1.00;;;;;;5058656;28;20494;-58
2022/07/11 12:58:02;;;;;;;1.07;0.70;;;24.00;1.00;;;;;;5070249;28;20412;-58
2022/07/11 13:00:29;;;;;;;2.30;0.90;;;23.70;1.00;;;;;;5070258;28;20765;-57
2022/07/11 13:02:55;;;;;;;0.90;0.60;;;23.70;1.00;;;;;;5049202;28;20439;-59
2022/07/11 13:05:21;;;;;;;0.90;0.67;;;23.70;1.00;;;;;;5050225;28;20565;-59
2022/07/11 13:10:50;;;;;;;1.50;0.70;;;24.40;1.00;;;;;;5049167;28;20230;-59
2022/07/11 13:13:17;;;;;;;3.63;0.70;;;24.40;1.00;;;;;;5050151;28;20496;-58
2022/07/11 13:15:43;;;;;;;1.77;0.70;;;24.20;1.00;;;;;;5049435;28;20409;-59
2022/07/11 13:18:09;;;;;;;0.87;0.70;;;24.10;1.00;;;;;;5049589;28;20474;-60
2022/07/11 13:20:35;;;;;;;2.00;0.87;;;24.20;1.00;;;;;;5050099;28;20462;-58